Aviation Digital Data Service (ADDS)

Output produced by TAFs form (1502 UTC 19 January 2017)
found at http://aviationweather.gov/adds/tafs/
 
KLVS 191132Z 1912/2012 32014KT P6SM SKC 
     FM191900 27016G26KT P6SM SCT120 BKN200 
     FM200100 27016KT P6SM SCT050 BKN100